Time;durP1;ratioP1;P1;durP2;ratioP2;P2;SDS_P1;SDS_P2;PMS_P1;PMS_P2;Temp;Humidity;BMP_temperature;BMP_pressure;BME280_temperature;BME280_humidity;BME280_pressure;Samples;Min_cycle;Max_cycle;Signal;HPM_P1;HPM_P2
2023/07/27 00:00:59;;;;;;;4.10;2.50;;;;;;;;;;5105632;28;20036;-65
2023/07/27 00:03:24;;;;;;;5.73;2.30;;;;;;;;;;5092923;28;20395;-63
2023/07/27 00:05:50;;;;;;;6.90;2.50;;;;;;;;;;5106009;28;20262;-63
2023/07/27 00:08:15;;;;;;;4.30;2.23;;;;;;;;;;5092439;28;20292;-63
2023/07/27 00:10:40;;;;;;;5.10;2.53;;;;;;;;;;5108774;28;20261;-63
2023/07/27 00:13:06;;;;;;;3.75;2.20;;;;;;;;;;5111862;28;20265;-64
2023/07/27 00:15:31;;;;;;;4.90;2.57;;;;;;;;;;5093355;28;20043;-63
2023/07/27 00:17:56;;;;;;;3.75;2.08;;;;;;;;;;5102236;28;20277;-63
2023/07/27 00:20:22;;;;;;;5.85;2.58;;;;;;;;;;5109846;28;20043;-64
2023/07/27 00:22:47;;;;;;;4.28;2.35;;;;;;;;;;5111422;28;20051;-64
2023/07/27 00:25:12;;;;;;;4.40;2.33;;;;;;;;;;5110079;28;20027;-63
2023/07/27 00:27:37;;;;;;;3.13;2.10;;;;;;;;;;5104392;28;20045;-64
2023/07/27 00:30:03;;;;;;;4.25;2.10;;;;;;;;;;5098348;28;20024;-64
2023/07/27 00:32:28;;;;;;;4.55;2.22;;;;;;;;;;5100697;28;20436;-64
2023/07/27 00:34:53;;;;;;;4.07;2.57;;;;;;;;;;5099557;28;20028;-64
2023/07/27 00:37:19;;;;;;;4.35;2.72;;;;;;;;;;5094822;28;20265;-64
2023/07/27 00:39:44;;;;;;;4.85;2.55;;;;;;;;;;5107293;28;20028;-63
2023/07/27 00:42:09;;;;;;;6.05;3.15;;;;;;;;;;5104295;28;20102;-63
2023/07/27 00:44:34;;;;;;;6.77;3.00;;;;;;;;;;5104363;28;20035;-63
2023/07/27 00:47:00;;;;;;;4.45;2.92;;;;;;;;;;5111583;28;20322;-63
2023/07/27 00:49:25;;;;;;;4.13;2.78;;;;;;;;;;5104456;28;20347;-63
2023/07/27 00:51:50;;;;;;;4.63;3.10;;;;;;;;;;5105293;28;20390;-63
2023/07/27 00:54:16;;;;;;;5.18;3.00;;;;;;;;;;5103920;28;20444;-63
2023/07/27 00:56:42;;;;;;;4.10;2.80;;;;;;;;;;5103709;28;20023;-63
2023/07/27 00:59:07;;;;;;;6.55;3.42;;;;;;;;;;5107178;28;20020;-64
2023/07/27 01:01:33;;;;;;;5.35;3.35;;;;;;;;;;5114315;28;20023;-63
2023/07/27 01:03:58;;;;;;;4.85;3.20;;;;;;;;;;5105943;28;20448;-64
2023/07/27 01:06:23;;;;;;;14.52;3.75;;;;;;;;;;5105228;28;20020;-64
2023/07/27 01:08:49;;;;;;;5.60;3.70;;;;;;;;;;5099845;28;20020;-64
2023/07/27 01:11:17;;;;;;;5.25;3.40;;;;;;;;;;5114417;28;20036;-64
2023/07/27 01:13:50;;;;;;;5.88;4.03;;;;;;;;;;5111911;28;20045;-64
2023/07/27 01:16:21;;;;;;;6.28;4.25;;;;;;;;;;5094560;28;20421;-64
2023/07/27 01:18:55;;;;;;;7.18;4.40;;;;;;;;;;5094458;28;20530;-64
2023/07/27 01:21:23;;;;;;;6.25;4.07;;;;;;;;;;5094757;28;20073;-64
2023/07/27 01:23:51;;;;;;;5.13;3.90;;;;;;;;;;5093746;28;20393;-64
2023/07/27 01:26:29;;;;;;;6.25;4.20;;;;;;;;;;5093293;28;20030;-64
2023/07/27 01:29:13;;;;;;;6.53;4.07;;;;;;;;;;5093885;28;20047;-63
2023/07/27 01:31:43;;;;;;;3.65;2.17;;;;;;;;;;5106899;28;20034;-64
2023/07/27 01:34:21;;;;;;;5.80;4.10;;;;;;;;;;5104672;28;20471;-64
2023/07/27 01:36:48;;;;;;;8.07;3.97;;;;;;;;;;5110810;28;20458;-64
2023/07/27 01:39:15;;;;;;;6.03;4.10;;;;;;;;;;5104551;28;20098;-64
2023/07/27 01:41:41;;;;;;;6.90;3.97;;;;;;;;;;5099519;28;20024;-64
2023/07/27 01:44:08;;;;;;;4.45;3.40;;;;;;;;;;5094814;28;20028;-64
2023/07/27 01:46:34;;;;;;;5.70;3.80;;;;;;;;;;5094300;28;20034;-64
2023/07/27 01:49:00;;;;;;;5.53;3.65;;;;;;;;;;5094714;28;20024;-64
2023/07/27 01:51:26;;;;;;;4.88;3.10;;;;;;;;;;5094639;28;20028;-64
2023/07/27 01:53:53;;;;;;;4.93;3.80;;;;;;;;;;5094886;28;20478;-64
2023/07/27 01:56:19;;;;;;;5.40;3.95;;;;;;;;;;5093385;28;20035;-63
2023/07/27 01:58:45;;;;;;;5.70;3.78;;;;;;;;;;5093778;28;20031;-63
2023/07/27 02:01:10;;;;;;;5.90;4.00;;;;;;;;;;5093946;28;20020;-63
2023/07/27 02:03:36;;;;;;;6.95;4.63;;;;;;;;;;5093787;28;20025;-63
2023/07/27 02:06:01;;;;;;;7.07;4.47;;;;;;;;;;5094372;28;20036;-63
2023/07/27 02:08:26;;;;;;;5.00;3.78;;;;;;;;;;5093208;28;20115;-64
2023/07/27 02:11:03;;;;;;;7.10;3.58;;;;;;;;;;5101637;28;20463;-63
2023/07/27 02:13:35;;;;;;;6.47;3.90;;;;;;;;;;5097931;28;20028;-63
2023/07/27 02:16:07;;;;;;;7.38;3.88;;;;;;;;;;5111531;28;20466;-64
2023/07/27 02:18:34;;;;;;;5.70;4.07;;;;;;;;;;5100006;28;20027;-64
2023/07/27 02:21:02;;;;;;;5.97;4.03;;;;;;;;;;5101150;28;20073;-64
2023/07/27 02:23:28;;;;;;;4.80;4.28;;;;;;;;;;5098377;28;20026;-63
2023/07/27 02:25:53;;;;;;;5.63;4.63;;;;;;;;;;5103975;28;20031;-63
2023/07/27 02:28:18;;;;;;;4.90;4.40;;;;;;;;;;5108390;28;20024;-63
2023/07/27 02:30:44;;;;;;;5.03;3.92;;;;;;;;;;5111683;28;20477;-64
2023/07/27 02:33:09;;;;;;;5.30;4.50;;;;;;;;;;5108007;28;20027;-64
2023/07/27 02:35:34;;;;;;;7.60;5.20;;;;;;;;;;5113401;28;20273;-63
2023/07/27 02:37:59;;;;;;;7.77;5.33;;;;;;;;;;5104440;28;20036;-63
2023/07/27 02:40:25;;;;;;;8.90;5.27;;;;;;;;;;5104457;28;20274;-63
2023/07/27 02:42:50;;;;;;;5.93;4.70;;;;;;;;;;5100961;28;20681;-62
2023/07/27 02:45:15;;;;;;;8.20;5.17;;;;;;;;;;5106571;28;20319;-62
2023/07/27 02:47:40;;;;;;;10.88;5.35;;;;;;;;;;5092842;28;20335;-62
2023/07/27 02:50:06;;;;;;;7.60;5.47;;;;;;;;;;5094009;28;20432;-62
2023/07/27 02:52:31;;;;;;;7.03;5.35;;;;;;;;;;5105636;28;20278;-62
2023/07/27 02:54:59;;;;;;;7.30;4.77;;;;;;;;;;5093796;28;20371;-62
2023/07/27 02:57:24;;;;;;;7.95;5.32;;;;;;;;;;5093247;28;20281;-62
2023/07/27 02:59:49;;;;;;;8.20;5.45;;;;;;;;;;5092832;28;20032;-62
2023/07/27 03:02:15;;;;;;;10.32;6.28;;;;;;;;;;5092609;28;20055;-62
2023/07/27 03:04:40;;;;;;;8.45;5.50;;;;;;;;;;5092398;28;20089;-62
2023/07/27 03:07:06;;;;;;;7.95;6.35;;;;;;;;;;5104977;28;20036;-62
2023/07/27 03:09:32;;;;;;;10.30;7.23;;;;;;;;;;5099880;28;20389;-61
2023/07/27 03:11:57;;;;;;;6.75;5.75;;;;;;;;;;5093299;28;20273;-62
2023/07/27 03:14:25;;;;;;;10.97;6.30;;;;;;;;;;5104813;28;20069;-61
2023/07/27 03:16:51;;;;;;;7.05;6.22;;;;;;;;;;5102037;28;20313;-61
2023/07/27 03:19:16;;;;;;;11.68;6.72;;;;;;;;;;5106115;28;20390;-61
2023/07/27 03:21:41;;;;;;;8.60;7.30;;;;;;;;;;5106546;28;20035;-61
2023/07/27 03:24:07;;;;;;;12.10;7.63;;;;;;;;;;5105647;28;20286;-61
2023/07/27 03:26:32;;;;;;;9.80;7.63;;;;;;;;;;5111761;28;20015;-61
2023/07/27 03:28:57;;;;;;;8.82;6.07;;;;;;;;;;5111262;28;20035;-61
2023/07/27 03:31:24;;;;;;;8.95;7.65;;;;;;;;;;5111597;28;20114;-61
2023/07/27 03:33:49;;;;;;;9.85;7.78;;;;;;;;;;5098777;28;20081;-63
2023/07/27 03:36:15;;;;;;;7.57;6.72;;;;;;;;;;5100693;28;20404;-62
2023/07/27 03:38:40;;;;;;;8.23;7.03;;;;;;;;;;5109012;28;20024;-62
2023/07/27 03:41:06;;;;;;;9.65;7.88;;;;;;;;;;5108772;28;20039;-63
2023/07/27 03:43:31;;;;;;;9.27;6.95;;;;;;;;;;5108289;28;20016;-63
2023/07/27 03:45:56;;;;;;;9.85;6.78;;;;;;;;;;5105041;28;20019;-63
2023/07/27 03:48:21;;;;;;;8.07;7.07;;;;;;;;;;5098360;28;20118;-63
2023/07/27 03:50:47;;;;;;;9.68;7.05;;;;;;;;;;5102481;28;20282;-62
2023/07/27 03:53:12;;;;;;;11.20;6.77;;;;;;;;;;5111311;28;20054;-63
2023/07/27 03:55:37;;;;;;;11.45;6.75;;;;;;;;;;5095372;28;20301;-62
2023/07/27 03:58:02;;;;;;;13.25;6.82;;;;;;;;;;5097945;28;20394;-63
2023/07/27 04:00:28;;;;;;;10.13;7.22;;;;;;;;;;5100436;28;20090;-63
2023/07/27 04:02:53;;;;;;;11.32;7.53;;;;;;;;;;5098896;28;20034;-63
2023/07/27 04:05:18;;;;;;;9.13;7.30;;;;;;;;;;5095994;28;20028;-63
2023/07/27 04:07:44;;;;;;;13.20;6.38;;;;;;;;;;5094806;28;20035;-63
2023/07/27 04:10:09;;;;;;;9.90;6.97;;;;;;;;;;5103578;28;20096;-62
2023/07/27 04:12:34;;;;;;;9.73;6.82;;;;;;;;;;5106681;28;20036;-62
2023/07/27 04:14:59;;;;;;;9.00;7.07;;;;;;;;;;5100831;28;20401;-63
2023/07/27 04:17:25;;;;;;;7.63;6.37;;;;;;;;;;5099754;28;20273;-62
2023/07/27 04:19:51;;;;;;;10.57;6.67;;;;;;;;;;5109682;28;20332;-62
2023/07/27 04:22:16;;;;;;;7.38;5.88;;;;;;;;;;5103029;28;20331;-64
2023/07/27 04:24:44;;;;;;;9.15;5.93;;;;;;;;;;5104101;28;20020;-62
2023/07/27 04:27:10;;;;;;;8.23;5.70;;;;;;;;;;5104304;28;20038;-62
2023/07/27 04:29:35;;;;;;;7.78;6.00;;;;;;;;;;5097309;28;20478;-63
2023/07/27 04:32:00;;;;;;;7.27;6.50;;;;;;;;;;5105084;28;20057;-62
2023/07/27 04:34:26;;;;;;;8.20;6.40;;;;;;;;;;5111559;28;20280;-63
2023/07/27 04:36:51;;;;;;;8.67;6.03;;;;;;;;;;5100085;28;20281;-63
2023/07/27 04:39:16;;;;;;;7.03;6.25;;;;;;;;;;5103713;28;20277;-62
2023/07/27 04:41:41;;;;;;;7.97;6.25;;;;;;;;;;5107699;28;20080;-63
2023/07/27 04:44:07;;;;;;;10.30;6.37;;;;;;;;;;5103899;28;20023;-63
2023/07/27 04:46:32;;;;;;;9.20;6.13;;;;;;;;;;5107752;28;20616;-63
2023/07/27 04:48:57;;;;;;;7.22;5.32;;;;;;;;;;5093300;28;20395;-63
2023/07/27 04:51:22;;;;;;;7.78;5.72;;;;;;;;;;5107258;28;20015;-63
2023/07/27 04:53:48;;;;;;;6.70;6.00;;;;;;;;;;5102390;28;20020;-63
2023/07/27 04:56:13;;;;;;;6.80;5.87;;;;;;;;;;5107001;28;20520;-63
2023/07/27 04:58:38;;;;;;;7.47;5.93;;;;;;;;;;5102321;28;20671;-63
2023/07/27 05:01:03;;;;;;;6.90;5.73;;;;;;;;;;5106664;28;20026;-63
2023/07/27 05:03:28;;;;;;;7.75;6.45;;;;;;;;;;5106623;28;20285;-63
2023/07/27 05:05:54;;;;;;;8.07;5.95;;;;;;;;;;5107136;28;20478;-63
2023/07/27 05:08:19;;;;;;;10.05;6.35;;;;;;;;;;5106858;28;20020;-63
2023/07/27 05:10:44;;;;;;;7.93;5.60;;;;;;;;;;5092757;28;20020;-62
2023/07/27 05:13:09;;;;;;;8.07;6.20;;;;;;;;;;5097319;28;20023;-63
2023/07/27 05:15:35;;;;;;;7.47;6.70;;;;;;;;;;5101045;28;20820;-63
2023/07/27 05:18:00;;;;;;;7.53;6.32;;;;;;;;;;5094671;28;20023;-62
2023/07/27 05:20:25;;;;;;;9.48;6.57;;;;;;;;;;5110638;28;20470;-63
2023/07/27 05:22:51;;;;;;;6.88;5.50;;;;;;;;;;5097616;28;20034;-62
2023/07/27 05:25:16;;;;;;;9.47;5.63;;;;;;;;;;5100995;28;20501;-63
2023/07/27 05:27:41;;;;;;;7.03;5.82;;;;;;;;;;5105017;28;20284;-63
2023/07/27 05:30:07;;;;;;;6.55;5.35;;;;;;;;;;5101556;28;20105;-63
2023/07/27 05:32:32;;;;;;;9.07;5.45;;;;;;;;;;5097552;28;20059;-63
2023/07/27 05:34:57;;;;;;;6.43;5.83;;;;;;;;;;5094109;28;20497;-63
2023/07/27 05:37:22;;;;;;;7.65;6.65;;;;;;;;;;5095019;28;20331;-63
2023/07/27 05:39:48;;;;;;;6.40;5.47;;;;;;;;;;5094899;28;20484;-63
2023/07/27 05:42:13;;;;;;;8.27;5.83;;;;;;;;;;5094411;28;20369;-64
2023/07/27 05:44:38;;;;;;;6.50;5.63;;;;;;;;;;5094368;28;20294;-64
2023/07/27 05:47:05;;;;;;;5.97;5.10;;;;;;;;;;5095810;28;20345;-63
2023/07/27 05:49:30;;;;;;;7.82;6.15;;;;;;;;;;5094528;28;20302;-63
2023/07/27 05:51:56;;;;;;;6.97;5.70;;;;;;;;;;5095947;28;20069;-63
2023/07/27 05:54:21;;;;;;;7.20;5.75;;;;;;;;;;5102351;28;20095;-64
2023/07/27 05:56:46;;;;;;;5.80;5.20;;;;;;;;;;5099681;28;20020;-63
2023/07/27 05:59:11;;;;;;;6.37;5.50;;;;;;;;;;5094539;28;20306;-63
2023/07/27 06:01:36;;;;;;;8.87;5.53;;;;;;;;;;5094743;28;20274;-63
2023/07/27 06:04:03;;;;;;;6.40;5.78;;;;;;;;;;5094213;28;20293;-63
2023/07/27 06:06:28;;;;;;;6.93;6.03;;;;;;;;;;5094948;28;20032;-63
2023/07/27 06:08:53;;;;;;;9.23;5.67;;;;;;;;;;5100311;28;20035;-63
2023/07/27 06:11:19;;;;;;;9.45;6.75;;;;;;;;;;5093623;28;20293;-63
2023/07/27 06:13:44;;;;;;;7.53;5.80;;;;;;;;;;5107950;28;20039;-63
2023/07/27 06:16:10;;;;;;;7.20;5.88;;;;;;;;;;5111235;28;20015;-63
2023/07/27 06:18:35;;;;;;;9.00;5.85;;;;;;;;;;5100788;28;20027;-64
2023/07/27 06:21:00;;;;;;;6.33;5.73;;;;;;;;;;5112163;28;20024;-63
2023/07/27 06:23:26;;;;;;;6.32;5.72;;;;;;;;;;5093266;28;20278;-63
2023/07/27 06:25:51;;;;;;;7.65;5.75;;;;;;;;;;5093151;28;20039;-63
2023/07/27 06:28:16;;;;;;;7.18;6.28;;;;;;;;;;5113147;28;20022;-63
2023/07/27 06:30:41;;;;;;;6.78;5.70;;;;;;;;;;5112539;28;20081;-63
2023/07/27 06:33:07;;;;;;;6.13;5.43;;;;;;;;;;5092959;28;20026;-63
2023/07/27 06:35:32;;;;;;;6.15;5.55;;;;;;;;;;5093052;28;20024;-64
2023/07/27 06:37:58;;;;;;;6.85;6.22;;;;;;;;;;5091987;28;20111;-63
2023/07/27 06:40:24;;;;;;;8.25;6.22;;;;;;;;;;5092524;28;20115;-63
2023/07/27 06:42:49;;;;;;;8.00;7.05;;;;;;;;;;5094755;28;20102;-63
2023/07/27 06:45:14;;;;;;;7.93;7.22;;;;;;;;;;5092339;28;20031;-63
2023/07/27 06:47:40;;;;;;;8.07;6.35;;;;;;;;;;5095517;28;20386;-63
2023/07/27 06:50:06;;;;;;;6.88;6.20;;;;;;;;;;5093712;28;20047;-63
2023/07/27 06:52:32;;;;;;;9.18;6.30;;;;;;;;;;5094231;28;20462;-63
2023/07/27 06:54:57;;;;;;;8.20;6.00;;;;;;;;;;5092852;28;20066;-63
2023/07/27 06:57:25;;;;;;;7.77;6.97;;;;;;;;;;5092986;28;20099;-63
2023/07/27 06:59:51;;;;;;;9.13;7.05;;;;;;;;;;5101790;28;20353;-63
2023/07/27 07:02:16;;;;;;;7.75;6.95;;;;;;;;;;5106698;28;20104;-63
2023/07/27 07:04:41;;;;;;;9.40;6.95;;;;;;;;;;5103192;28;20599;-63
2023/07/27 07:07:07;;;;;;;7.95;7.15;;;;;;;;;;5094743;28;20540;-63
2023/07/27 07:09:32;;;;;;;8.98;7.68;;;;;;;;;;5098230;28;20032;-63
2023/07/27 07:11:58;;;;;;;11.27;7.97;;;;;;;;;;5094156;28;20016;-63
2023/07/27 07:14:24;;;;;;;9.05;7.95;;;;;;;;;;5091054;28;20028;-64
2023/07/27 07:16:49;;;;;;;7.88;7.07;;;;;;;;;;5092864;28;20115;-63
2023/07/27 07:19:14;;;;;;;9.30;7.95;;;;;;;;;;5105697;28;20027;-63
2023/07/27 07:21:40;;;;;;;10.00;8.23;;;;;;;;;;5102292;28;20031;-64
2023/07/27 07:24:05;;;;;;;9.32;8.40;;;;;;;;;;5112228;28;20015;-61
2023/07/27 07:26:30;;;;;;;10.00;8.52;;;;;;;;;;5098979;28;20024;-64
2023/07/27 07:28:55;;;;;;;10.80;8.37;;;;;;;;;;5111550;28;20116;-65
2023/07/27 07:31:20;;;;;;;10.70;8.90;;;;;;;;;;5111656;28;20304;-64
2023/07/27 07:33:46;;;;;;;10.17;8.50;;;;;;;;;;5110498;28;20326;-62
2023/07/27 07:36:11;;;;;;;8.85;7.95;;;;;;;;;;5097608;28;20274;-62
2023/07/27 07:38:36;;;;;;;8.70;7.80;;;;;;;;;;5102978;28;20111;-64
2023/07/27 07:41:01;;;;;;;11.73;7.10;;;;;;;;;;5111192;28;20955;-64
2023/07/27 07:43:27;;;;;;;7.43;6.73;;;;;;;;;;5105613;28;20296;-64
2023/07/27 07:45:52;;;;;;;7.63;6.83;;;;;;;;;;5111489;28;20273;-64
2023/07/27 07:48:17;;;;;;;10.48;7.70;;;;;;;;;;5100151;28;20349;-65
2023/07/27 07:50:43;;;;;;;10.18;8.30;;;;;;;;;;5108839;28;20073;-64
2023/07/27 07:53:09;;;;;;;7.53;6.10;;;;;;;;;;5109390;28;20032;-63
2023/07/27 07:55:37;;;;;;;7.38;6.68;;;;;;;;;;5095582;28;20020;-63
2023/07/27 07:58:03;;;;;;;10.25;6.95;;;;;;;;;;5102488;28;20016;-64
2023/07/27 08:00:28;;;;;;;7.45;6.57;;;;;;;;;;5111456;28;20035;-64
2023/07/27 08:02:53;;;;;;;6.93;6.22;;;;;;;;;;5112104;28;20458;-62
2023/07/27 08:05:18;;;;;;;6.88;6.18;;;;;;;;;;5111484;28;20023;-62
2023/07/27 08:07:44;;;;;;;5.73;5.17;;;;;;;;;;5112267;28;20722;-62
2023/07/27 08:10:09;;;;;;;6.43;5.82;;;;;;;;;;5098000;28;20297;-62
2023/07/27 08:12:35;;;;;;;7.07;6.03;;;;;;;;;;5111509;28;20027;-64
2023/07/27 08:15:01;;;;;;;8.77;6.78;;;;;;;;;;5111645;28;20031;-61
2023/07/27 08:17:29;;;;;;;7.00;6.30;;;;;;;;;;5099686;28;20036;-62
2023/07/27 08:19:54;;;;;;;6.90;6.07;;;;;;;;;;5110417;28;20366;-62
2023/07/27 08:22:19;;;;;;;7.45;6.03;;;;;;;;;;5111816;28;20103;-62
2023/07/27 08:24:45;;;;;;;8.97;5.57;;;;;;;;;;5110971;28;20030;-61
2023/07/27 08:27:10;;;;;;;6.83;6.13;;;;;;;;;;5111735;28;20287;-62
2023/07/27 08:29:35;;;;;;;5.35;4.85;;;;;;;;;;5110655;28;20285;-62
2023/07/27 08:32:01;;;;;;;7.53;5.68;;;;;;;;;;5111594;28;20388;-62
2023/07/27 08:34:26;;;;;;;5.97;5.30;;;;;;;;;;5107397;28;20057;-62
2023/07/27 08:36:52;;;;;;;6.40;5.00;;;;;;;;;;5111337;28;20235;-62
2023/07/27 08:39:17;;;;;;;7.15;5.03;;;;;;;;;;5097063;28;20272;-61
2023/07/27 08:41:42;;;;;;;5.87;4.83;;;;;;;;;;5110576;28;20386;-61
2023/07/27 08:44:08;;;;;;;7.55;4.35;;;;;;;;;;5105305;28;20266;-62
2023/07/27 08:46:33;;;;;;;6.35;4.60;;;;;;;;;;5091313;28;20080;-62
2023/07/27 08:49:01;;;;;;;6.63;4.55;;;;;;;;;;5108885;28;20493;-62
2023/07/27 08:51:28;;;;;;;5.97;4.47;;;;;;;;;;5111575;28;20101;-61
2023/07/27 08:53:53;;;;;;;5.80;4.45;;;;;;;;;;5105687;28;20016;-61
2023/07/27 08:56:18;;;;;;;6.73;5.07;;;;;;;;;;5084747;28;20048;-62
2023/07/27 08:58:43;;;;;;;5.90;4.80;;;;;;;;;;5110330;28;20292;-62
2023/07/27 09:01:09;;;;;;;5.80;4.43;;;;;;;;;;5100770;28;20191;-62
2023/07/27 09:03:34;;;;;;;7.05;4.35;;;;;;;;;;5113764;28;20537;-61
2023/07/27 09:06:00;;;;;;;8.32;4.97;;;;;;;;;;5114660;28;20023;-62
2023/07/27 09:08:29;;;;;;;7.28;5.57;;;;;;;;;;5114632;28;20077;-62
2023/07/27 09:10:54;;;;;;;5.80;5.03;;;;;;;;;;5094532;28;20484;-62
2023/07/27 09:13:20;;;;;;;6.03;4.55;;;;;;;;;;5107297;28;20104;-62
2023/07/27 09:15:45;;;;;;;10.25;4.82;;;;;;;;;;5094972;28;20032;-61
2023/07/27 09:18:12;;;;;;;7.97;5.13;;;;;;;;;;5094116;28;20115;-62
2023/07/27 09:20:38;;;;;;;6.00;4.85;;;;;;;;;;5095474;28;20095;-62
2023/07/27 09:23:04;;;;;;;5.63;4.68;;;;;;;;;;5095110;28;20036;-62
2023/07/27 09:25:29;;;;;;;6.57;4.55;;;;;;;;;;5095285;28;20356;-63
2023/07/27 09:27:55;;;;;;;8.27;4.80;;;;;;;;;;5096160;28;20386;-62
2023/07/27 09:30:21;;;;;;;6.43;4.47;;;;;;;;;;5105725;28;20024;-62
2023/07/27 09:32:47;;;;;;;5.32;4.30;;;;;;;;;;5099466;28;20023;-62
2023/07/27 09:35:13;;;;;;;6.30;3.90;;;;;;;;;;5096046;28;20028;-62
2023/07/27 09:37:42;;;;;;;4.47;3.35;;;;;;;;;;5107380;28;20020;-64
2023/07/27 09:40:08;;;;;;;3.22;2.60;;;;;;;;;;5096393;28;20028;-63
2023/07/27 09:42:33;;;;;;;3.90;2.42;;;;;;;;;;5098162;28;20059;-63
2023/07/27 09:44:58;;;;;;;3.88;2.33;;;;;;;;;;5095924;28;20056;-63
2023/07/27 09:47:29;;;;;;;3.63;2.30;;;;;;;;;;5097755;28;20431;-63
2023/07/27 09:49:57;;;;;;;3.47;2.35;;;;;;;;;;5095613;28;20089;-63
2023/07/27 09:52:23;;;;;;;4.25;2.70;;;;;;;;;;5096009;28;20471;-62
2023/07/27 09:54:49;;;;;;;5.97;1.92;;;;;;;;;;5107259;28;20102;-62
2023/07/27 09:57:14;;;;;;;2.90;2.10;;;;;;;;;;5107979;28;20024;-62
2023/07/27 09:59:41;;;;;;;3.35;2.15;;;;;;;;;;5097001;28;20124;-62
2023/07/27 10:02:06;;;;;;;2.75;1.75;;;;;;;;;;5103432;28;20048;-63
2023/07/27 10:04:31;;;;;;;5.17;1.83;;;;;;;;;;5102998;28;20452;-63
2023/07/27 10:07:00;;;;;;;3.75;1.80;;;;;;;;;;5098837;28;20270;-63
2023/07/27 10:09:25;;;;;;;3.13;1.65;;;;;;;;;;5103100;28;20153;-62
2023/07/27 10:11:57;;;;;;;2.33;1.43;;;;;;;;;;5106893;28;20472;-62
2023/07/27 10:14:26;;;;;;;2.75;1.52;;;;;;;;;;5101207;28;20266;-62
2023/07/27 10:16:58;;;;;;;2.72;1.17;;;;;;;;;;5100711;28;20028;-63
2023/07/27 10:19:25;;;;;;;3.08;1.65;;;;;;;;;;5108343;28;20096;-62
2023/07/27 10:21:51;;;;;;;3.65;1.60;;;;;;;;;;5112833;28;20027;-63
2023/07/27 10:24:23;;;;;;;2.83;1.73;;;;;;;;;;5112227;28;20099;-63
2023/07/27 10:26:51;;;;;;;3.08;1.70;;;;;;;;;;5093581;28;20032;-63
2023/07/27 10:29:17;;;;;;;3.63;2.00;;;;;;;;;;5093172;28;20047;-62
2023/07/27 10:31:44;;;;;;;2.80;1.73;;;;;;;;;;5093492;28;20385;-62
2023/07/27 10:34:17;;;;;;;3.72;2.08;;;;;;;;;;5095627;28;20032;-63
2023/07/27 10:37:01;;;;;;;3.03;1.70;;;;;;;;;;5102893;28;20024;-63
2023/07/27 10:39:26;;;;;;;2.88;1.75;;;;;;;;;;5099487;28;20028;-63
2023/07/27 10:42:02;;;;;;;4.03;2.20;;;;;;;;;;5113380;28;20080;-62
2023/07/27 10:44:42;;;;;;;3.13;2.40;;;;;;;;;;5100694;28;20046;-62
2023/07/27 10:47:08;;;;;;;4.88;2.17;;;;;;;;;;5112625;28;20031;-63
2023/07/27 10:49:41;;;;;;;3.30;2.05;;;;;;;;;;5103599;28;20487;-63
2023/07/27 10:52:07;;;;;;;3.13;2.30;;;;;;;;;;5104332;28;20501;-63
2023/07/27 10:54:36;;;;;;;4.70;2.10;;;;;;;;;;5112268;28;20471;-63
2023/07/27 10:57:02;;;;;;;5.00;3.03;;;;;;;;;;5105871;28;20091;-63
2023/07/27 10:59:27;;;;;;;3.15;2.20;;;;;;;;;;5093767;28;20099;-63
2023/07/27 11:01:53;;;;;;;4.22;2.75;;;;;;;;;;5094056;28;20066;-64
2023/07/27 11:04:18;;;;;;;4.13;2.30;;;;;;;;;;5093323;28;20050;-63
2023/07/27 11:06:44;;;;;;;3.13;2.13;;;;;;;;;;5107015;28;20063;-60
2023/07/27 11:09:10;;;;;;;4.97;1.88;;;;;;;;;;5111749;28;20027;-62
2023/07/27 11:11:35;;;;;;;4.47;2.00;;;;;;;;;;5105143;28;20039;-62
2023/07/27 11:14:05;;;;;;;2.57;1.70;;;;;;;;;;5100807;28;20027;-62
2023/07/27 11:16:30;;;;;;;4.78;1.50;;;;;;;;;;5106435;28;20282;-61
2023/07/27 11:18:56;;;;;;;2.85;1.70;;;;;;;;;;5104359;28;20046;-64
2023/07/27 11:21:21;;;;;;;2.13;1.13;;;;;;;;;;5101642;28;20042;-63
2023/07/27 11:23:46;;;;;;;2.25;0.98;;;;;;;;;;5104230;28;20026;-63
2023/07/27 11:26:12;;;;;;;1.73;0.90;;;;;;;;;;5104587;28;20543;-66
2023/07/27 11:28:38;;;;;;;1.40;0.80;;;;;;;;;;5106324;28;20047;-63
2023/07/27 11:31:15;;;;;;;2.20;1.08;;;;;;;;;;5106437;28;20023;-63
2023/07/27 11:33:40;;;;;;;2.08;0.93;;;;;;;;;;5104227;28;20031;-64
2023/07/27 11:36:05;;;;;;;2.83;1.33;;;;;;;;;;5103634;28;20023;-63
2023/07/27 11:38:31;;;;;;;2.30;1.52;;;;;;;;;;5101207;28;20376;-63
2023/07/27 11:40:59;;;;;;;3.28;1.88;;;;;;;;;;5105996;28;20470;-63
2023/07/27 11:43:25;;;;;;;5.63;1.90;;;;;;;;;;5105236;28;20043;-64
2023/07/27 11:45:57;;;;;;;2.50;1.65;;;;;;;;;;5110077;28;20027;-63
2023/07/27 11:48:28;;;;;;;3.38;1.75;;;;;;;;;;5105444;28;20089;-65
2023/07/27 11:50:58;;;;;;;2.88;1.20;;;;;;;;;;5105508;28;20035;-64
2023/07/27 11:53:24;;;;;;;2.28;1.30;;;;;;;;;;5112338;28;20071;-64
2023/07/27 11:55:50;;;;;;;3.33;1.45;;;;;;;;;;5105703;28;20024;-63
2023/07/27 11:58:15;;;;;;;2.75;1.83;;;;;;;;;;5111581;28;20485;-63
2023/07/27 12:00:45;;;;;;;2.47;1.73;;;;;;;;;;5106838;28;20023;-63
2023/07/27 12:03:11;;;;;;;2.63;1.85;;;;;;;;;;5109300;28;20028;-65
2023/07/27 12:05:36;;;;;;;2.20;1.50;;;;;;;;;;5107276;28;20024;-63
2023/07/27 12:08:01;;;;;;;2.65;1.48;;;;;;;;;;5111947;28;20024;-64
2023/07/27 12:10:27;;;;;;;2.60;1.63;;;;;;;;;;5094882;28;20165;-63
2023/07/27 12:13:03;;;;;;;3.10;1.60;;;;;;;;;;5111895;28;20382;-64
2023/07/27 12:15:29;;;;;;;2.53;1.58;;;;;;;;;;5098781;28;20027;-65
2023/07/27 12:17:56;;;;;;;3.50;1.30;;;;;;;;;;5098336;28;20035;-64
2023/07/27 12:20:21;;;;;;;1.90;1.20;;;;;;;;;;5102605;28;20022;-65
2023/07/27 12:22:47;;;;;;;2.72;1.30;;;;;;;;;;5095352;28;20106;-64
2023/07/27 12:25:12;;;;;;;2.17;1.17;;;;;;;;;;5103873;28;20033;-63
2023/07/27 12:27:37;;;;;;;1.88;1.15;;;;;;;;;;5101933;28;20093;-64
2023/07/27 12:30:03;;;;;;;2.97;1.45;;;;;;;;;;5104509;28;20024;-66
2023/07/27 12:32:28;;;;;;;2.17;1.60;;;;;;;;;;5096055;28;20039;-62
2023/07/27 12:34:53;;;;;;;2.07;1.30;;;;;;;;;;5109491;28;20405;-64
2023/07/27 12:37:18;;;;;;;2.83;1.75;;;;;;;;;;5098229;28;20273;-65
2023/07/27 12:39:44;;;;;;;4.57;2.45;;;;;;;;;;5096925;28;20483;-64
2023/07/27 12:42:09;;;;;;;3.23;1.70;;;;;;;;;;5095584;28;20027;-65
2023/07/27 12:44:34;;;;;;;2.20;1.33;;;;;;;;;;5104535;28;20322;-65
2023/07/27 12:46:59;;;;;;;1.85;1.08;;;;;;;;;;5100092;28;20285;-64
2023/07/27 12:49:25;;;;;;;1.70;0.97;;;;;;;;;;5097215;28;20032;-65
2023/07/27 12:51:51;;;;;;;2.10;1.30;;;;;;;;;;5095250;28;20273;-65
2023/07/27 12:54:16;;;;;;;2.95;1.15;;;;;;;;;;5094718;28;20572;-65
2023/07/27 12:56:42;;;;;;;1.70;1.00;;;;;;;;;;5099679;28;20031;-64
2023/07/27 12:59:07;;;;;;;1.75;0.95;;;;;;;;;;5094389;28;20765;-64
2023/07/27 13:01:32;;;;;;;4.87;1.00;;;;;;;;;;5099493;28;20023;-65
2023/07/27 13:03:58;;;;;;;2.50;1.00;;;;;;;;;;5099197;28;20274;-64
2023/07/27 13:06:23;;;;;;;2.03;1.00;;;;;;;;;;5099514;28;20779;-65
2023/07/27 13:08:48;;;;;;;1.97;0.87;;;;;;;;;;5103638;28;20617;-64
2023/07/27 13:11:13;;;;;;;1.67;0.90;;;;;;;;;;5110097;28;20284;-64
2023/07/27 13:13:38;;;;;;;1.98;1.13;;;;;;;;;;5097001;28;20270;-64
2023/07/27 13:16:04;;;;;;;3.07;1.00;;;;;;;;;;5091390;28;20529;-63
2023/07/27 13:18:29;;;;;;;2.27;1.47;;;;;;;;;;5090566;28;20613;-64
2023/07/27 13:20:54;;;;;;;2.58;0.93;;;;;;;;;;5090448;28;20298;-64
2023/07/27 13:23:19;;;;;;;2.53;0.90;;;;;;;;;;5090539;28;20478;-65
2023/07/27 13:25:45;;;;;;;1.40;0.73;;;;;;;;;;5104148;28;20724;-65
2023/07/27 13:28:10;;;;;;;1.47;0.90;;;;;;;;;;5104081;28;20258;-65
2023/07/27 13:30:35;;;;;;;1.73;0.80;;;;;;;;;;5092203;28;20300;-64
2023/07/27 13:33:01;;;;;;;7.85;1.00;;;;;;;;;;5103937;28;20330;-66
2023/07/27 13:35:26;;;;;;;5.80;1.17;;;;;;;;;;5105109;28;20016;-65
2023/07/27 13:37:51;;;;;;;1.87;1.13;;;;;;;;;;5103195;28;20027;-65
2023/07/27 13:40:17;;;;;;;1.50;0.70;;;;;;;;;;5092499;28;20282;-65
2023/07/27 13:42:42;;;;;;;1.43;0.60;;;;;;;;;;5091572;28;20690;-65
2023/07/27 13:45:07;;;;;;;0.93;0.50;;;;;;;;;;5091286;28;20367;-64
2023/07/27 13:47:33;;;;;;;3.10;0.75;;;;;;;;;;5096762;28;20027;-65
2023/07/27 13:49:58;;;;;;;2.83;1.10;;;;;;;;;;5100866;28;20028;-64
2023/07/27 13:52:24;;;;;;;1.58;0.70;;;;;;;;;;5101559;28;20371;-64
2023/07/27 13:54:50;;;;;;;1.60;0.50;;;;;;;;;;5107105;28;20085;-64
2023/07/27 13:57:15;;;;;;;5.18;0.90;;;;;;;;;;5107334;28;20478;-65
2023/07/27 13:59:40;;;;;;;1.48;0.73;;;;;;;;;;5106745;28;20029;-63
2023/07/27 14:02:06;;;;;;;1.98;1.00;;;;;;;;;;5107688;28;20026;-65
2023/07/27 14:04:31;;;;;;;2.17;1.17;;;;;;;;;;5108406;28;20024;-65
2023/07/27 14:06:56;;;;;;;2.22;1.15;;;;;;;;;;5103223;28;20284;-65
2023/07/27 14:09:21;;;;;;;2.50;1.20;;;;;;;;;;5106177;28;20082;-65
2023/07/27 14:11:47;;;;;;;2.10;1.20;;;;;;;;;;5093639;28;20298;-65
2023/07/27 14:14:12;;;;;;;2.33;1.00;;;;;;;;;;5105916;28;20020;-63
2023/07/27 14:16:37;;;;;;;2.10;1.30;;;;;;;;;;5090895;28;20022;-65
2023/07/27 14:19:02;;;;;;;2.40;1.30;;;;;;;;;;5113062;28;20281;-64
2023/07/27 14:21:28;;;;;;;2.10;1.23;;;;;;;;;;5098565;28;20624;-64
2023/07/27 14:23:53;;;;;;;2.72;1.17;;;;;;;;;;5112323;28;20297;-64
2023/07/27 14:26:18;;;;;;;2.13;1.27;;;;;;;;;;5094483;28;20031;-64
2023/07/27 14:28:43;;;;;;;2.42;1.60;;;;;;;;;;5103880;28;20114;-66
2023/07/27 14:31:09;;;;;;;2.63;1.50;;;;;;;;;;5113020;28;20027;-64
2023/07/27 14:33:34;;;;;;;2.60;1.50;;;;;;;;;;5109212;28;20419;-65
2023/07/27 14:36:00;;;;;;;2.30;1.60;;;;;;;;;;5112269;28;20628;-66